Time;durP1;ratioP1;P1;durP2;ratioP2;P2;SDS_P1;SDS_P2;PMS_P1;PMS_P2;Temp;Humidity;BMP_temperature;BMP_pressure;BME280_temperature;BME280_humidity;BME280_pressure;Samples;Min_cycle;Max_cycle;Signal;HPM_P1;HPM_P2
2022/11/16 00:01:22;;;;;;;10.07;9.07;;;10.90;99.90;;;;;;5051127;28;20040;-55
2022/11/16 00:03:50;;;;;;;9.07;8.18;;;10.90;99.90;;;;;;5048659;28;20072;-57
2022/11/16 00:06:16;;;;;;;9.50;8.30;;;10.90;99.90;;;;;;5050603;28;20060;-56
2022/11/16 00:09:20;;;;;;;8.98;7.68;;;10.90;99.90;;;;;;5050763;28;20555;-54
2022/11/16 00:11:30;;;;;;;10.43;9.32;;;10.90;99.90;;;;;;5069076;28;20048;-56
2022/11/16 00:13:56;;;;;;;9.57;8.53;;;10.90;99.90;;;;;;5070256;28;20028;-53
2022/11/16 00:16:21;;;;;;;9.90;9.00;;;10.90;99.90;;;;;;5069882;28;20040;-57
2022/11/16 00:18:47;;;;;;;11.37;9.37;;;10.90;99.90;;;;;;5078896;28;20122;-56
2022/11/16 00:21:12;;;;;;;9.93;8.17;;;10.90;99.90;;;;;;5069657;28;20036;-56
2022/11/16 00:23:38;;;;;;;12.00;9.80;;;10.90;99.90;;;;;;5082085;28;20066;-55
2022/11/16 00:26:06;;;;;;;10.45;9.40;;;11.00;99.90;;;;;;5087430;28;20044;-56
2022/11/16 00:28:32;;;;;;;13.57;9.25;;;10.90;99.90;;;;;;5073899;28;20044;-56
2022/11/16 00:31:02;;;;;;;13.32;9.48;;;10.90;99.90;;;;;;5078786;28;20067;-57
2022/11/16 00:33:27;;;;;;;10.90;9.77;;;10.90;99.90;;;;;;5072703;28;20042;-57
2022/11/16 00:35:53;;;;;;;10.45;9.05;;;10.90;99.90;;;;;;5061844;28;20108;-56
2022/11/16 00:38:19;;;;;;;10.57;9.57;;;10.90;99.90;;;;;;5070233;28;20478;-54
2022/11/16 00:40:45;;;;;;;14.43;9.82;;;10.90;99.90;;;;;;5064022;28;20086;-57
2022/11/16 00:43:10;;;;;;;11.47;9.53;;;10.90;99.90;;;;;;5049413;28;20486;-57
2022/11/16 00:45:38;;;;;;;12.53;9.87;;;10.90;99.90;;;;;;5049962;28;20041;-56
2022/11/16 00:48:04;;;;;;;11.25;10.15;;;10.90;99.90;;;;;;5052699;28;20115;-57
2022/11/16 00:50:30;;;;;;;10.07;9.07;;;11.00;99.90;;;;;;5069821;28;20116;-54
2022/11/16 00:52:55;;;;;;;11.20;9.57;;;11.00;99.90;;;;;;5068788;28;20041;-54
2022/11/16 00:55:21;;;;;;;9.57;8.65;;;11.00;99.90;;;;;;5069236;28;20279;-55
2022/11/16 00:57:47;;;;;;;10.25;9.25;;;11.00;99.90;;;;;;5070258;28;20093;-57
2022/11/16 01:00:13;;;;;;;9.70;8.70;;;11.00;99.90;;;;;;5070250;28;20039;-56
2022/11/16 01:02:39;;;;;;;13.00;8.95;;;11.00;99.90;;;;;;5067641;28;20040;-56
2022/11/16 01:05:06;;;;;;;10.07;8.90;;;11.00;99.90;;;;;;5068597;28;20059;-57
2022/11/16 01:07:37;;;;;;;13.85;9.40;;;11.00;99.90;;;;;;5070255;28;20401;-57
2022/11/16 01:10:11;;;;;;;10.48;9.48;;;11.00;99.90;;;;;;5070128;28;20115;-57
2022/11/16 01:12:37;;;;;;;9.93;9.02;;;11.00;99.90;;;;;;5068262;28;20060;-57
2022/11/16 01:15:05;;;;;;;11.32;9.13;;;11.00;99.90;;;;;;5066354;28;20032;-57
2022/11/16 01:17:31;;;;;;;9.25;8.18;;;11.10;99.90;;;;;;5050482;28;20072;-57
2022/11/16 01:19:56;;;;;;;12.47;9.07;;;11.10;99.90;;;;;;5050177;28;20571;-57
2022/11/16 01:22:22;;;;;;;10.90;8.87;;;11.10;99.90;;;;;;5057913;28;20521;-57
2022/11/16 01:24:47;;;;;;;9.93;8.87;;;11.10;99.90;;;;;;5068046;28;20501;-57
2022/11/16 01:27:13;;;;;;;9.90;8.23;;;11.10;99.90;;;;;;5070663;28;20041;-55
2022/11/16 01:29:39;;;;;;;9.70;8.77;;;11.10;99.90;;;;;;5069722;28;20043;-57
2022/11/16 01:32:05;;;;;;;9.32;8.20;;;11.10;99.90;;;;;;5067644;28;20623;-57
2022/11/16 01:34:30;;;;;;;9.30;8.40;;;11.10;99.90;;;;;;5048450;28;20029;-57
2022/11/16 01:36:56;;;;;;;10.87;8.13;;;11.10;99.90;;;;;;5049319;28;20037;-57
2022/11/16 01:39:22;;;;;;;11.90;8.93;;;11.10;99.90;;;;;;5049735;28;20357;-57
2022/11/16 01:41:47;;;;;;;10.30;9.27;;;11.10;99.90;;;;;;5049580;28;20459;-53
2022/11/16 01:44:31;;;;;;;11.67;9.73;;;11.10;99.90;;;;;;5063307;28;20472;-56
2022/11/16 01:47:04;;;;;;;9.30;8.30;;;11.10;99.90;;;;;;5069321;28;20037;-54
2022/11/16 01:49:33;;;;;;;9.65;8.75;;;11.10;99.90;;;;;;5069626;28;20040;-53
2022/11/16 01:52:04;;;;;;;9.35;7.82;;;11.00;99.90;;;;;;5069478;28;20546;-56
2022/11/16 01:54:33;;;;;;;10.82;8.50;;;11.00;99.90;;;;;;5053713;28;20037;-53
2022/11/16 01:57:02;;;;;;;12.18;7.55;;;11.00;99.90;;;;;;5048939;28;20090;-56
2022/11/16 01:59:28;;;;;;;10.07;7.88;;;11.00;99.90;;;;;;5049487;28;20167;-56
2022/11/16 02:01:54;;;;;;;10.85;7.75;;;11.00;99.90;;;;;;5049968;28;20487;-53
2022/11/16 02:04:20;;;;;;;8.77;7.87;;;11.00;99.90;;;;;;5066589;28;20098;-56
2022/11/16 02:07:03;;;;;;;8.13;6.95;;;11.00;99.90;;;;;;5069503;28;20048;-57
2022/11/16 02:10:13;;;;;;;8.55;6.82;;;11.00;99.90;;;;;;5069340;28;20044;-55
2022/11/16 02:13:11;;;;;;;8.80;7.28;;;11.10;99.90;;;;;;5040619;28;20066;-55
2022/11/16 02:15:50;;;;;;;10.38;7.05;;;11.10;99.90;;;;;;5052406;28;20048;-55
2022/11/16 02:18:21;;;;;;;9.05;6.50;;;11.10;99.90;;;;;;5049244;28;20587;-54
2022/11/16 02:21:04;;;;;;;12.80;5.95;;;11.00;99.90;;;;;;5067411;28;20102;-54
2022/11/16 02:24:01;;;;;;;7.55;6.82;;;11.10;99.90;;;;;;5068264;28;20475;-56
2022/11/16 02:26:36;;;;;;;12.85;6.18;;;11.10;99.90;;;;;;5062915;28;20409;-53
2022/11/16 02:29:19;;;;;;;9.48;6.80;;;11.00;99.90;;;;;;5049147;28;20510;-55
2022/11/16 02:32:06;;;;;;;10.15;6.75;;;11.10;99.90;;;;;;5049117;28;20072;-53
2022/11/16 02:34:38;;;;;;;10.00;7.05;;;11.00;99.90;;;;;;5057197;28;20147;-56
2022/11/16 02:37:06;;;;;;;8.13;6.63;;;11.00;99.90;;;;;;5066897;28;20087;-56
2022/11/16 02:39:35;;;;;;;7.97;6.85;;;11.00;99.90;;;;;;5078812;28;20037;-55
2022/11/16 02:42:03;;;;;;;8.85;7.72;;;11.00;99.90;;;;;;5084749;28;20040;-55
2022/11/16 02:44:34;;;;;;;10.18;6.85;;;11.00;99.90;;;;;;5071176;28;20049;-59
2022/11/16 02:47:04;;;;;;;7.93;7.13;;;11.00;99.90;;;;;;5081014;28;20073;-54
2022/11/16 02:49:48;;;;;;;9.57;7.47;;;11.00;99.90;;;;;;5080894;28;20071;-54
2022/11/16 02:52:15;;;;;;;7.53;6.78;;;11.00;99.90;;;;;;5060639;28;20095;-56
2022/11/16 02:54:41;;;;;;;9.52;7.18;;;11.00;99.90;;;;;;5054748;28;20490;-56
2022/11/16 02:57:06;;;;;;;9.53;7.50;;;11.00;99.90;;;;;;5056503;28;20033;-56
2022/11/16 02:59:47;;;;;;;12.87;7.73;;;11.00;99.90;;;;;;5052496;28;20036;-54
2022/11/16 03:02:23;;;;;;;8.30;7.53;;;10.90;99.90;;;;;;5052294;28;20044;-53
2022/11/16 03:04:53;;;;;;;12.00;8.05;;;10.90;99.90;;;;;;5050733;28;20760;-56
2022/11/16 03:07:24;;;;;;;10.63;8.65;;;10.90;99.90;;;;;;5056999;28;20033;-55
2022/11/16 03:09:53;;;;;;;10.20;8.85;;;10.90;99.90;;;;;;5051912;28;20448;-56
2022/11/16 03:12:23;;;;;;;10.45;8.43;;;10.90;99.90;;;;;;5050745;28;20045;-55
2022/11/16 03:14:56;;;;;;;13.77;9.05;;;10.90;99.90;;;;;;5050413;28;20045;-57
2022/11/16 03:17:46;;;;;;;14.07;9.88;;;10.90;99.90;;;;;;5059475;28;20463;-57
2022/11/16 03:20:16;;;;;;;11.13;9.40;;;10.80;99.90;;;;;;5071766;28;20075;-56
2022/11/16 03:23:07;;;;;;;13.77;9.48;;;10.80;99.90;;;;;;5071043;28;20435;-57
2022/11/16 03:25:43;;;;;;;10.60;9.50;;;10.80;99.90;;;;;;5071791;28;20056;-57
2022/11/16 03:28:31;;;;;;;13.70;10.52;;;10.80;99.90;;;;;;5070663;28;20120;-57
2022/11/16 03:31:04;;;;;;;11.57;9.93;;;10.80;99.90;;;;;;5072356;28;20040;-53
2022/11/16 03:33:37;;;;;;;15.13;11.20;;;10.80;99.90;;;;;;5070744;28;20072;-55
2022/11/16 03:36:10;;;;;;;14.77;10.68;;;10.80;99.90;;;;;;5071339;28;20543;-57
2022/11/16 03:38:39;;;;;;;14.93;10.90;;;10.80;99.90;;;;;;5061807;28;20120;-57
2022/11/16 03:41:07;;;;;;;15.23;10.80;;;10.80;99.90;;;;;;5056594;28;20051;-56
2022/11/16 03:43:33;;;;;;;16.83;11.80;;;10.70;99.90;;;;;;5070448;28;20049;-57
2022/11/16 03:45:59;;;;;;;;;;;10.70;99.90;;;;;;5071496;28;20466;-56
2022/11/16 03:48:24;;;;;;;14.02;10.85;;;10.70;99.90;;;;;;5066943;28;19917;-57
2022/11/16 03:50:51;;;;;;;15.57;11.17;;;10.70;99.90;;;;;;5050954;28;20049;-56
2022/11/16 03:53:17;;;;;;;15.30;11.93;;;10.70;99.90;;;;;;5049174;28;20598;-57
2022/11/16 03:55:43;;;;;;;14.97;12.07;;;10.70;99.90;;;;;;5048143;28;20063;-57
2022/11/16 03:58:09;;;;;;;15.38;12.80;;;10.70;99.90;;;;;;5060875;28;20512;-57
2022/11/16 04:00:35;;;;;;;16.27;12.80;;;10.70;99.90;;;;;;5070629;28;20064;-57
2022/11/16 04:03:00;;;;;;;14.40;12.37;;;10.70;99.90;;;;;;5068352;28;20082;-56
2022/11/16 04:25:24;;;;;;;18.30;13.95;;;10.70;99.90;;;;;;5047008;28;20049;-53
2022/11/16 04:38:47;;;;;;;20.45;14.57;;;10.70;99.90;;;;;;5047061;28;20502;-56
2022/11/16 04:42:13;;;;;;;17.60;14.57;;;10.70;99.90;;;;;;5047768;28;20080;-56
2022/11/16 04:43:58;;;;;;;18.95;13.70;;;10.70;99.90;;;;;;5046393;28;20080;-56
2022/11/16 04:49:08;;;;;;;17.70;14.80;;;10.70;99.90;;;;;;5029690;28;20041;-55
2022/11/16 04:51:34;;;;;;;19.67;15.40;;;10.70;99.90;;;;;;5066213;28;20033;-55
2022/11/16 04:53:59;;;;;;;24.03;15.87;;;10.70;99.90;;;;;;5060096;28;20039;-53
2022/11/16 04:56:25;;;;;;;23.43;16.27;;;10.70;99.90;;;;;;5072747;28;20529;-56
2022/11/16 04:58:50;;;;;;;22.67;16.83;;;10.70;99.90;;;;;;5057241;28;20069;-53
2022/11/16 05:01:16;;;;;;;20.30;16.50;;;10.70;99.90;;;;;;5053770;28;20410;-57
2022/11/16 05:03:41;;;;;;;20.23;15.77;;;10.70;99.90;;;;;;5068566;28;20041;-55
2022/11/16 05:06:07;;;;;;;23.10;17.13;;;10.70;99.90;;;;;;5069543;28;20634;-54
2022/11/16 05:08:32;;;;;;;23.43;17.40;;;10.70;99.90;;;;;;5069722;28;20523;-56
2022/11/16 05:10:58;;;;;;;19.60;17.20;;;10.60;99.90;;;;;;5069256;28;20129;-57
2022/11/16 05:13:23;;;;;;;19.17;16.23;;;10.60;99.90;;;;;;5066066;28;20112;-52
2022/11/16 05:15:49;;;;;;;22.03;17.27;;;10.60;99.90;;;;;;5049699;28;20328;-57
2022/11/16 05:18:14;;;;;;;22.10;16.47;;;10.60;99.90;;;;;;5049966;28;20041;-57
2022/11/16 05:26:08;;;;;;;21.63;17.80;;;10.60;99.90;;;;;;5069768;28;20072;-57
2022/11/16 05:28:34;;;;;;;26.67;17.90;;;10.60;99.90;;;;;;5056015;28;20064;-55
2022/11/16 05:30:59;;;;;;;22.60;18.13;;;10.60;99.90;;;;;;5051102;28;20052;-57
2022/11/16 05:33:25;;;;;;;23.93;18.23;;;10.60;99.90;;;;;;5048464;28;20041;-57
2022/11/16 05:35:51;;;;;;;25.47;19.10;;;10.60;99.90;;;;;;5049609;28;20510;-55
2022/11/16 05:38:17;;;;;;;24.27;18.10;;;10.60;99.90;;;;;;5049902;28;20037;-55
2022/11/16 05:40:43;;;;;;;23.15;19.05;;;10.60;99.90;;;;;;5049793;28;20045;-57
2022/11/16 05:43:09;;;;;;;21.93;19.40;;;10.60;99.90;;;;;;5047057;28;20090;-56
2022/11/16 05:45:34;;;;;;;23.23;19.17;;;10.60;99.90;;;;;;5055143;28;20162;-57
2022/11/16 05:48:00;;;;;;;22.87;18.77;;;10.60;99.90;;;;;;5069928;28;20033;-57
2022/11/16 05:50:25;;;;;;;22.87;19.10;;;10.60;99.90;;;;;;5069429;28;20036;-57
2022/11/16 05:52:51;;;;;;;25.37;19.43;;;10.60;99.90;;;;;;5068424;28;20056;-57
2022/11/16 05:55:16;;;;;;;24.87;19.60;;;10.60;99.90;;;;;;5068575;28;20037;-57
2022/11/16 05:57:42;;;;;;;26.77;20.30;;;10.60;99.90;;;;;;5069255;28;20044;-56
2022/11/16 06:00:08;;;;;;;24.60;20.07;;;10.60;99.90;;;;;;5069580;28;20193;-57
2022/11/16 06:02:33;;;;;;;31.15;21.38;;;10.60;99.90;;;;;;5067457;28;20141;-56
2022/11/16 06:04:59;;;;;;;29.07;20.23;;;10.60;99.90;;;;;;5067850;28;20682;-55
2022/11/16 06:07:24;;;;;;;25.23;21.00;;;10.60;99.90;;;;;;5069465;28;20040;-58
2022/11/16 06:09:50;;;;;;;26.43;20.83;;;10.60;99.90;;;;;;5069218;28;20094;-56
2022/11/16 06:12:15;;;;;;;28.47;20.53;;;10.60;99.90;;;;;;5062766;28;20084;-56
2022/11/16 06:14:41;;;;;;;27.30;22.50;;;10.60;99.90;;;;;;5047753;28;20607;-56
2022/11/16 06:17:07;;;;;;;26.50;21.97;;;10.60;99.90;;;;;;5052485;28;20565;-57
2022/11/16 06:19:34;;;;;;;27.77;22.52;;;10.70;99.90;;;;;;5053081;28;20294;-57
2022/11/16 06:21:59;;;;;;;;;;;10.60;99.90;;;;;;5054349;28;20429;-57
2022/11/16 06:24:25;;;;;;;26.50;21.90;;;10.70;99.90;;;;;;5051771;28;19916;-57
2022/11/16 06:26:50;;;;;;;28.63;22.13;;;10.70;99.90;;;;;;5052404;28;20037;-57
2022/11/16 06:29:16;;;;;;;28.50;23.23;;;10.70;99.90;;;;;;5053006;28;20410;-56
2022/11/16 06:31:41;;;;;;;27.90;24.00;;;10.70;99.90;;;;;;5052516;28;20044;-54
2022/11/16 06:34:07;;;;;;;30.47;22.70;;;10.70;99.90;;;;;;5052851;28;20572;-55
2022/11/16 06:36:32;;;;;;;29.17;23.30;;;10.70;99.90;;;;;;5076469;28;20634;-57
2022/11/16 06:38:59;;;;;;;30.17;24.00;;;10.70;99.90;;;;;;5078803;28;20807;-56
2022/11/16 06:41:25;;;;;;;28.50;22.08;;;10.70;99.90;;;;;;5080083;28;20177;-56
2022/11/16 06:43:51;;;;;;;26.03;22.00;;;10.70;99.90;;;;;;5074903;28;20052;-56
2022/11/16 06:46:16;;;;;;;23.70;20.70;;;10.70;99.90;;;;;;5075232;28;20442;-54
2022/11/16 06:48:42;;;;;;;25.02;20.63;;;10.70;99.90;;;;;;5081343;28;20089;-56
2022/11/16 06:51:07;;;;;;;22.27;19.17;;;10.70;99.90;;;;;;5082531;28;20044;-56
2022/11/16 06:53:33;;;;;;;23.77;19.30;;;10.70;99.90;;;;;;5065828;28;20036;-53
2022/11/16 06:56:04;;;;;;;22.47;18.80;;;10.80;99.90;;;;;;5070667;28;20103;-56
2022/11/16 06:58:30;;;;;;;25.20;19.13;;;10.80;99.90;;;;;;5072166;28;20036;-53
2022/11/16 07:00:56;;;;;;;23.05;18.85;;;10.80;99.90;;;;;;5071946;28;20040;-56
2022/11/16 07:03:22;;;;;;;25.23;20.05;;;10.70;99.90;;;;;;5071763;28;20115;-55
2022/11/16 07:05:48;;;;;;;22.97;18.50;;;10.80;99.90;;;;;;5070922;28;20556;-56
2022/11/16 07:08:13;;;;;;;23.40;19.73;;;10.80;99.90;;;;;;5080162;28;20093;-54
2022/11/16 07:10:39;;;;;;;23.23;18.50;;;10.80;99.90;;;;;;5079006;28;20267;-53
2022/11/16 07:13:04;;;;;;;23.73;19.57;;;10.80;99.90;;;;;;5067559;28;20029;-54
2022/11/16 07:15:31;;;;;;;25.15;19.58;;;10.80;99.90;;;;;;5060959;28;20037;-56
2022/11/16 07:18:02;;;;;;;22.67;19.98;;;10.80;99.90;;;;;;5058071;28;20040;-57
2022/11/16 07:20:28;;;;;;;22.77;19.45;;;10.80;99.90;;;;;;5051584;28;20134;-56
2022/11/16 07:22:53;;;;;;;23.37;19.23;;;10.80;99.90;;;;;;5061613;28;20398;-56
2022/11/16 07:25:19;;;;;;;24.23;19.30;;;10.80;99.90;;;;;;5075120;28;20102;-54
2022/11/16 07:27:44;;;;;;;21.53;19.13;;;10.80;99.90;;;;;;5068691;28;20040;-55
2022/11/16 07:30:10;;;;;;;22.83;19.57;;;10.80;99.90;;;;;;5070539;28;20127;-55
2022/11/16 07:32:38;;;;;;;21.70;19.38;;;10.80;99.90;;;;;;5072289;28;20398;-53
2022/11/16 07:35:04;;;;;;;22.08;19.08;;;10.80;99.90;;;;;;5066956;28;20440;-54
2022/11/16 07:37:30;;;;;;;18.83;16.73;;;10.80;99.90;;;;;;5074863;28;20481;-53
2022/11/16 07:39:55;;;;;;;20.70;18.10;;;10.80;99.90;;;;;;5090960;28;20043;-57
2022/11/16 07:42:21;;;;;;;20.77;18.60;;;10.80;99.90;;;;;;5072358;28;20393;-56
2022/11/16 07:44:46;;;;;;;21.57;18.87;;;10.90;99.90;;;;;;5056123;28;20048;-55
2022/11/16 07:47:12;;;;;;;19.43;17.23;;;10.90;99.90;;;;;;5073225;28;20046;-55
2022/11/16 07:49:38;;;;;;;21.52;18.60;;;10.80;99.90;;;;;;5080706;28;20068;-56
2022/11/16 07:52:03;;;;;;;23.10;18.70;;;10.80;99.90;;;;;;5064327;28;20508;-56
2022/11/16 07:54:29;;;;;;;19.87;16.30;;;10.80;99.90;;;;;;5069655;28;20283;-57
2022/11/16 07:56:54;;;;;;;17.90;16.00;;;10.80;99.90;;;;;;5067899;28;20044;-57
2022/11/16 07:59:20;;;;;;;16.00;14.40;;;10.90;99.90;;;;;;5069997;28;20036;-56
2022/11/16 08:01:46;;;;;;;15.57;14.03;;;10.90;99.90;;;;;;5055493;28;20051;-57
2022/11/16 08:04:14;;;;;;;18.63;15.55;;;10.90;99.90;;;;;;5055518;28;20538;-59
2022/11/16 08:06:39;;;;;;;16.58;14.98;;;10.90;99.90;;;;;;5050535;28;20072;-57
2022/11/16 08:09:05;;;;;;;21.13;17.57;;;10.90;99.90;;;;;;5060327;28;20068;-53
2022/11/16 08:11:30;;;;;;;20.93;17.30;;;10.90;99.90;;;;;;5067517;28;21034;-55
2022/11/16 08:13:56;;;;;;;19.40;17.40;;;10.90;99.90;;;;;;5064217;28;20032;-57
2022/11/16 08:16:22;;;;;;;18.90;16.92;;;10.90;99.90;;;;;;5057008;28;20033;-57
2022/11/16 08:18:48;;;;;;;22.42;17.17;;;10.90;99.90;;;;;;5056182;28;20037;-57
2022/11/16 08:21:15;;;;;;;20.88;17.98;;;10.90;99.90;;;;;;5047180;28;20064;-56
2022/11/16 08:23:40;;;;;;;21.48;17.67;;;10.90;99.90;;;;;;5049030;28;20529;-56
2022/11/16 08:26:14;;;;;;;22.80;18.87;;;10.90;99.90;;;;;;5055920;28;20064;-55
2022/11/16 08:28:40;;;;;;;25.02;20.05;;;10.80;99.90;;;;;;5056569;28;20299;-56
2022/11/16 08:31:18;;;;;;;20.92;16.35;;;10.90;99.90;;;;;;5051764;28;21260;-56
2022/11/16 08:33:44;;;;;;;23.00;17.90;;;10.90;99.90;;;;;;5050650;28;20528;-56
2022/11/16 08:36:15;;;;;;;22.05;17.67;;;10.90;99.90;;;;;;5047583;28;20044;-56
2022/11/16 08:38:41;;;;;;;20.13;18.08;;;10.90;99.90;;;;;;5049898;28;20028;-56
2022/11/16 08:41:07;;;;;;;22.10;19.70;;;11.00;99.90;;;;;;5054871;28;20052;-58
2022/11/16 08:43:34;;;;;;;26.85;21.65;;;11.00;99.90;;;;;;5049829;28;20041;-56
2022/11/16 08:46:00;;;;;;;25.20;22.33;;;11.00;99.90;;;;;;5045552;28;20502;-57
2022/11/16 08:48:26;;;;;;;31.40;23.17;;;11.00;99.90;;;;;;5046564;28;20095;-56
2022/11/16 08:50:51;;;;;;;31.98;23.23;;;11.10;99.90;;;;;;5047143;28;20041;-56
2022/11/16 08:53:17;;;;;;;32.30;24.70;;;11.10;99.90;;;;;;5043975;28;20124;-58
2022/11/16 08:55:42;;;;;;;27.80;23.10;;;11.10;99.90;;;;;;5045482;28;20294;-56
2022/11/16 08:58:09;;;;;;;32.47;23.37;;;11.10;99.90;;;;;;5051315;28;20371;-54
2022/11/16 09:00:34;;;;;;;31.40;24.27;;;11.20;99.90;;;;;;5045592;28;20633;-55
2022/11/16 09:03:00;;;;;;;30.58;24.08;;;11.20;99.90;;;;;;5037498;28;20184;-58
2022/11/16 09:05:26;;;;;;;34.92;25.05;;;11.20;99.90;;;;;;5049243;28;20048;-53
2022/11/16 09:07:51;;;;;;;28.23;22.70;;;11.20;99.90;;;;;;5056712;28;20444;-55
2022/11/16 09:10:21;;;;;;;26.43;21.80;;;11.30;99.90;;;;;;5046859;28;20045;-54
2022/11/16 09:12:51;;;;;;;28.17;21.35;;;11.30;99.90;;;;;;5050633;28;20056;-54
2022/11/16 09:15:18;;;;;;;31.02;21.77;;;11.30;99.90;;;;;;5053897;28;20059;-55
2022/11/16 09:17:44;;;;;;;25.85;18.33;;;11.30;99.90;;;;;;5054289;28;20115;-56
2022/11/16 09:20:09;;;;;;;21.60;16.98;;;11.40;99.90;;;;;;5060192;28;20111;-53
2022/11/16 09:22:35;;;;;;;20.08;16.17;;;11.40;99.90;;;;;;5050648;28;20041;-54
2022/11/16 09:25:00;;;;;;;20.10;14.73;;;11.40;99.90;;;;;;5053291;28;20195;-54
2022/11/16 09:27:26;;;;;;;17.20;14.50;;;11.40;99.90;;;;;;5044527;28;20106;-57
2022/11/16 09:29:52;;;;;;;17.77;12.67;;;11.50;99.90;;;;;;5049289;28;20045;-57
2022/11/16 09:32:17;;;;;;;15.33;12.50;;;11.60;99.90;;;;;;5047231;28;20037;-52
2022/11/16 09:34:42;;;;;;;11.83;9.70;;;11.70;99.90;;;;;;5060243;28;20532;-54
2022/11/16 09:37:08;;;;;;;13.10;11.03;;;11.80;99.90;;;;;;5054391;28;20542;-54
2022/11/16 09:39:34;;;;;;;12.07;9.80;;;12.00;99.90;;;;;;5052633;28;20036;-57
2022/11/16 09:42:07;;;;;;;11.30;10.03;;;12.10;99.90;;;;;;5047705;28;21046;-57
2022/11/16 09:45:07;;;;;;;12.18;10.35;;;12.10;99.90;;;;;;5054572;28;20370;-57
2022/11/16 09:47:49;;;;;;;12.40;10.23;;;12.00;99.90;;;;;;5065355;28;20048;-57
2022/11/16 09:50:24;;;;;;;16.00;10.57;;;11.90;99.90;;;;;;5069069;28;20461;-56
2022/11/16 09:52:54;;;;;;;14.18;10.55;;;11.80;99.90;;;;;;5065465;28;20071;-57
2022/11/16 09:55:36;;;;;;;11.73;9.88;;;11.80;99.90;;;;;;5064195;28;20064;-57
2022/11/16 09:58:21;;;;;;;14.07;8.40;;;11.80;99.90;;;;;;5069411;28;20233;-56
2022/11/16 10:00:55;;;;;;;10.85;9.13;;;11.70;99.90;;;;;;5068823;28;20047;-54
2022/11/16 10:03:20;;;;;;;10.77;7.60;;;11.80;99.90;;;;;;5066087;28;20041;-57
2022/11/16 10:06:04;;;;;;;15.18;8.50;;;11.80;99.90;;;;;;5066514;28;20035;-56
2022/11/16 10:08:47;;;;;;;13.80;7.32;;;11.80;99.90;;;;;;5063515;28;20443;-58
2022/11/16 10:11:30;;;;;;;14.20;7.03;;;11.80;99.90;;;;;;5065188;28;20049;-55
2022/11/16 10:14:22;;;;;;;11.50;5.90;;;11.70;99.90;;;;;;5059688;28;20617;-57
2022/11/16 10:17:11;;;;;;;14.15;6.45;;;11.80;99.90;;;;;;5063642;28;20589;-57
2022/11/16 10:19:54;;;;;;;9.25;6.35;;;11.80;99.90;;;;;;5066305;28;20091;-56
2022/11/16 10:22:41;;;;;;;11.43;5.40;;;11.80;99.90;;;;;;5063723;28;20045;-55
2022/11/16 10:25:30;;;;;;;14.63;5.65;;;11.80;99.90;;;;;;5063976;28;20041;-57
2022/11/16 10:28:17;;;;;;;7.88;4.57;;;11.90;99.90;;;;;;5058707;28;20044;-53
2022/11/16 10:31:06;;;;;;;8.53;5.20;;;12.20;99.90;;;;;;5065897;28;20052;-56
2022/11/16 10:33:35;;;;;;;14.35;5.38;;;12.50;99.90;;;;;;5066071;28;20290;-56
2022/11/16 10:36:08;;;;;;;6.50;4.45;;;12.60;99.90;;;;;;5060748;28;20493;-57
2022/11/16 10:38:34;;;;;;;7.05;4.05;;;12.60;99.90;;;;;;5066215;28;20037;-57
2022/11/16 10:41:34;;;;;;;6.72;3.42;;;12.60;99.90;;;;;;5065512;28;20787;-56
2022/11/16 10:44:01;;;;;;;11.18;3.92;;;12.50;99.90;;;;;;5063579;28;20028;-55
2022/11/16 10:46:41;;;;;;;8.05;2.97;;;12.50;99.90;;;;;;5061726;28;20040;-57
2022/11/16 10:49:15;;;;;;;9.90;3.35;;;12.60;99.90;;;;;;5060182;28;20028;-57
2022/11/16 10:51:41;;;;;;;4.65;2.30;;;12.50;99.90;;;;;;5061308;28;20036;-57
2022/11/16 10:54:14;;;;;;;6.82;2.92;;;12.40;99.90;;;;;;5060298;28;20033;-57
2022/11/16 10:56:44;;;;;;;7.35;2.40;;;12.50;99.90;;;;;;5063170;28;20055;-57
2022/11/16 10:59:12;;;;;;;11.27;3.03;;;12.50;99.90;;;;;;5061345;28;20045;-56
2022/11/16 11:01:40;;;;;;;9.07;2.67;;;12.50;99.90;;;;;;5061794;28;20040;-57
2022/11/16 11:04:22;;;;;;;9.00;2.25;;;12.70;99.90;;;;;;5057660;28;20041;-57
2022/11/16 11:07:20;;;;;;;7.30;2.15;;;13.00;99.90;;;;;;5059272;28;20040;-56
2022/11/16 11:09:52;;;;;;;4.97;1.67;;;13.30;99.90;;;;;;5062822;28;20575;-56
2022/11/16 11:12:38;;;;;;;13.45;2.22;;;13.70;99.90;;;;;;5059035;28;20049;-57
2022/11/16 11:15:10;;;;;;;14.60;2.92;;;14.10;99.90;;;;;;5058681;28;20036;-57
2022/11/16 11:17:43;;;;;;;10.15;2.10;;;14.70;99.90;;;;;;5057433;28;20036;-57
2022/11/16 11:20:15;;;;;;;8.93;2.05;;;15.00;99.90;;;;;;5058849;28;20430;-56
2022/11/16 11:23:01;;;;;;;6.65;1.90;;;15.30;99.90;;;;;;5059231;28;20068;-58
2022/11/16 11:25:40;;;;;;;7.32;1.60;;;15.50;99.90;;;;;;5058733;28;20042;-57
2022/11/16 11:28:20;;;;;;;4.07;1.70;;;15.60;99.90;;;;;;5056371;28;20021;-57
2022/11/16 11:31:10;;;;;;;9.60;2.30;;;15.30;99.90;;;;;;5063650;28;20051;-57
2022/11/16 11:33:47;;;;;;;10.48;1.75;;;15.00;99.90;;;;;;5059699;28;20099;-56
2022/11/16 11:36:39;;;;;;;9.68;2.40;;;15.10;99.90;;;;;;5063625;28;20037;-57
2022/11/16 11:39:29;;;;;;;15.05;2.25;;;15.20;99.90;;;;;;5061575;28;20053;-56
2022/11/16 11:42:03;;;;;;;5.90;1.15;;;15.60;99.90;;;;;;5064693;28;20052;-56
2022/11/16 11:44:53;;;;;;;6.70;2.08;;;15.80;99.90;;;;;;5058886;28;20409;-57
2022/11/16 11:47:36;;;;;;;14.52;2.10;;;16.10;99.90;;;;;;5053788;28;20060;-58
2022/11/16 11:50:39;;;;;;;9.82;2.42;;;16.40;99.90;;;;;;5062549;28;20069;-57
2022/11/16 11:53:20;;;;;;;7.47;1.40;;;16.60;99.90;;;;;;5057410;28;20040;-57
2022/11/16 11:55:45;;;;;;;22.98;2.80;;;16.00;99.90;;;;;;5061410;28;20036;-58
2022/11/16 11:58:17;;;;;;;4.30;1.20;;;15.90;99.90;;;;;;5059100;28;20036;-57
2022/11/16 12:01:11;;;;;;;9.73;1.70;;;16.00;99.90;;;;;;5061507;28;20107;-58
2022/11/16 12:03:40;;;;;;;12.45;1.75;;;16.10;99.90;;;;;;5058094;28;20040;-57
2022/11/16 12:06:14;;;;;;;7.55;1.23;;;16.20;99.90;;;;;;5056865;28;20486;-57
2022/11/16 12:09:07;;;;;;;7.97;2.15;;;16.10;99.90;;;;;;5056263;28;20044;-57
2022/11/16 12:11:54;;;;;;;9.18;1.88;;;16.10;99.90;;;;;;5059775;28;20171;-58
2022/11/16 12:14:54;;;;;;;10.07;2.45;;;16.30;99.90;;;;;;5057236;28;20052;-57
2022/11/16 12:17:28;;;;;;;8.07;2.08;;;16.50;99.90;;;;;;5056779;28;20119;-57
2022/11/16 12:20:18;;;;;;;10.77;1.95;;;16.40;99.90;;;;;;5058044;28;20044;-57
2022/11/16 12:22:46;;;;;;;10.23;1.90;;;16.40;99.90;;;;;;5059729;28;20037;-59
2022/11/16 12:25:34;;;;;;;7.72;1.60;;;16.70;99.90;;;;;;5055859;28;20037;-58
2022/11/16 12:28:02;;;;;;;9.52;1.73;;;16.80;99.90;;;;;;5056873;28;20089;-57
2022/11/16 12:30:35;;;;;;;7.88;1.77;;;16.90;99.90;;;;;;5061050;28;20040;-58
2022/11/16 12:33:26;;;;;;;13.68;1.95;;;16.90;99.90;;;;;;5061538;28;20048;-58
2022/11/16 12:36:01;;;;;;;5.57;0.93;;;17.20;99.90;;;;;;5058704;28;20039;-56
2022/11/16 12:38:58;;;;;;;5.90;1.13;;;16.80;99.40;;;;;;5058086;28;20090;-57
2022/11/16 12:41:35;;;;;;;14.85;2.15;;;16.70;99.50;;;;;;5060345;28;20048;-58
2022/11/16 12:44:06;;;;;;;13.48;1.73;;;16.60;99.90;;;;;;5066300;28;20101;-57
2022/11/16 12:46:57;;;;;;;4.72;1.10;;;16.80;99.60;;;;;;5063211;28;20047;-58
2022/11/16 12:50:00;;;;;;;10.60;1.52;;;16.80;99.30;;;;;;5061808;28;20406;-58
2022/11/16 12:52:46;;;;;;;11.60;2.55;;;17.70;99.40;;;;;;5055832;28;20044;-57
2022/11/16 12:55:19;;;;;;;9.57;1.80;;;18.20;98.70;;;;;;5060902;28;20282;-57
2022/11/16 12:58:12;;;;;;;10.82;1.67;;;18.90;96.70;;;;;;5061033;28;20039;-56
2022/11/16 13:01:04;;;;;;;8.05;0.90;;;19.50;94.30;;;;;;5061065;28;20036;-58
2022/11/16 13:04:05;;;;;;;9.65;1.88;;;20.20;94.30;;;;;;5023659;28;20434;-58
2022/11/16 13:06:35;;;;;;;8.38;1.27;;;21.00;94.10;;;;;;5038576;28;20053;-57
2022/11/16 13:09:05;;;;;;;5.47;0.80;;;21.60;92.80;;;;;;5059921;28;20141;-58
2022/11/16 13:11:41;;;;;;;13.98;2.28;;;22.20;92.30;;;;;;5064469;28;20602;-57
2022/11/16 13:14:14;;;;;;;11.32;1.60;;;22.10;88.20;;;;;;5054789;28;20082;-57
2022/11/16 13:16:40;;;;;;;5.75;1.02;;;21.10;86.40;;;;;;5062978;28;20036;-58
2022/11/16 13:19:08;;;;;;;5.13;1.08;;;20.20;88.30;;;;;;5059103;28;20091;-58
2022/11/16 13:21:45;;;;;;;9.55;1.35;;;19.40;88.80;;;;;;5061656;28;20037;-58
2022/11/16 13:24:29;;;;;;;7.68;0.82;;;18.40;89.50;;;;;;5053663;28;20521;-58
2022/11/16 13:27:14;;;;;;;8.40;1.92;;;17.70;91.60;;;;;;5059073;28;20471;-56
2022/11/16 13:29:55;;;;;;;14.32;1.08;;;17.10;93.10;;;;;;5059934;28;20086;-57
2022/11/16 13:32:40;;;;;;;11.20;2.00;;;16.60;93.90;;;;;;5061411;28;20143;-57
2022/11/16 13:35:13;;;;;;;12.65;1.30;;;16.30;94.40;;;;;;5055906;28;20166;-58
2022/11/16 13:37:38;;;;;;;7.13;1.45;;;15.80;95.20;;;;;;5056644;28;20123;-58